sensor_id;sensor_type;location;lat;lon;timestamp;P1;durP1;ratioP1;P2;durP2;ratioP2
21114;SDS011;10715;48.546;9.896;2023-06-22T00:02:13;12.73;;;7.40;;
21114;SDS011;10715;48.546;9.896;2023-06-22T00:04:39;10.67;;;6.57;;
21114;SDS011;10715;48.546;9.896;2023-06-22T00:07:05;9.77;;;6.63;;
21114;SDS011;10715;48.546;9.896;2023-06-22T00:09:31;9.70;;;7.00;;
21114;SDS011;10715;48.546;9.896;2023-06-22T00:11:57;18.03;;;7.07;;
21114;SDS011;10715;48.546;9.896;2023-06-22T00:14:23;10.20;;;7.50;;
21114;SDS011;10715;48.546;9.896;2023-06-22T00:16:48;13.80;;;7.17;;
21114;SDS011;10715;48.546;9.896;2023-06-22T00:19:19;9.60;;;6.63;;
21114;SDS011;10715;48.546;9.896;2023-06-22T00:21:46;10.43;;;7.17;;
21114;SDS011;10715;48.546;9.896;2023-06-22T00:24:13;7.43;;;6.30;;
21114;SDS011;10715;48.546;9.896;2023-06-22T00:26:39;7.27;;;6.67;;
21114;SDS011;10715;48.546;9.896;2023-06-22T00:29:04;7.70;;;7.00;;
21114;SDS011;10715;48.546;9.896;2023-06-22T00:31:30;11.50;;;6.70;;
21114;SDS011;10715;48.546;9.896;2023-06-22T00:33:56;11.10;;;7.10;;
21114;SDS011;10715;48.546;9.896;2023-06-22T00:36:21;11.70;;;6.27;;
21114;SDS011;10715;48.546;9.896;2023-06-22T00:38:49;7.20;;;6.50;;
21114;SDS011;10715;48.546;9.896;2023-06-22T00:41:16;15.40;;;6.70;;
21114;SDS011;10715;48.546;9.896;2023-06-22T00:43:42;8.57;;;6.37;;
21114;SDS011;10715;48.546;9.896;2023-06-22T00:46:08;7.73;;;6.93;;
21114;SDS011;10715;48.546;9.896;2023-06-22T00:48:34;7.40;;;6.63;;
21114;SDS011;10715;48.546;9.896;2023-06-22T00:51:02;14.47;;;7.70;;
21114;SDS011;10715;48.546;9.896;2023-06-22T00:53:27;7.50;;;6.63;;
21114;SDS011;10715;48.546;9.896;2023-06-22T00:55:53;11.27;;;7.03;;
21114;SDS011;10715;48.546;9.896;2023-06-22T00:58:20;9.87;;;5.90;;
21114;SDS011;10715;48.546;9.896;2023-06-22T01:00:51;11.63;;;6.00;;
21114;SDS011;10715;48.546;9.896;2023-06-22T01:03:16;8.30;;;7.47;;
21114;SDS011;10715;48.546;9.896;2023-06-22T01:05:43;7.40;;;5.50;;
21114;SDS011;10715;48.546;9.896;2023-06-22T01:11:01;9.13;;;5.30;;
21114;SDS011;10715;48.546;9.896;2023-06-22T01:16:17;10.57;;;6.40;;
21114;SDS011;10715;48.546;9.896;2023-06-22T01:18:47;8.10;;;6.40;;
21114;SDS011;10715;48.546;9.896;2023-06-22T01:21:18;14.00;;;7.63;;
21114;SDS011;10715;48.546;9.896;2023-06-22T01:23:55;11.70;;;7.03;;
21114;SDS011;10715;48.546;9.896;2023-06-22T01:28:53;15.80;;;6.63;;
21114;SDS011;10715;48.546;9.896;2023-06-22T01:31:23;6.77;;;6.07;;
21114;SDS011;10715;48.546;9.896;2023-06-22T01:33:54;8.50;;;5.93;;
21114;SDS011;10715;48.546;9.896;2023-06-22T01:36:23;11.83;;;5.93;;
21114;SDS011;10715;48.546;9.896;2023-06-22T01:38:50;13.00;;;5.20;;
21114;SDS011;10715;48.546;9.896;2023-06-22T01:41:21;6.70;;;6.10;;
21114;SDS011;10715;48.546;9.896;2023-06-22T01:43:50;7.73;;;5.50;;
21114;SDS011;10715;48.546;9.896;2023-06-22T01:46:17;10.43;;;7.07;;
21114;SDS011;10715;48.546;9.896;2023-06-22T01:48:44;9.23;;;5.10;;
21114;SDS011;10715;48.546;9.896;2023-06-22T01:51:11;12.50;;;6.60;;
21114;SDS011;10715;48.546;9.896;2023-06-22T01:53:37;6.30;;;5.70;;
21114;SDS011;10715;48.546;9.896;2023-06-22T01:56:03;7.50;;;6.03;;
21114;SDS011;10715;48.546;9.896;2023-06-22T01:58:29;14.07;;;6.50;;
21114;SDS011;10715;48.546;9.896;2023-06-22T02:00:58;13.93;;;5.70;;
21114;SDS011;10715;48.546;9.896;2023-06-22T02:03:34;5.07;;;4.67;;
21114;SDS011;10715;48.546;9.896;2023-06-22T02:06:08;8.93;;;5.40;;
21114;SDS011;10715;48.546;9.896;2023-06-22T02:08:49;5.00;;;4.43;;
21114;SDS011;10715;48.546;9.896;2023-06-22T02:11:20;6.93;;;5.80;;
21114;SDS011;10715;48.546;9.896;2023-06-22T02:13:47;6.10;;;5.07;;
21114;SDS011;10715;48.546;9.896;2023-06-22T02:16:14;10.30;;;5.83;;
21114;SDS011;10715;48.546;9.896;2023-06-22T02:18:49;6.67;;;5.60;;
21114;SDS011;10715;48.546;9.896;2023-06-22T02:21:16;5.97;;;5.43;;
21114;SDS011;10715;48.546;9.896;2023-06-22T02:23:43;6.23;;;5.10;;
21114;SDS011;10715;48.546;9.896;2023-06-22T02:26:09;6.00;;;5.40;;
21114;SDS011;10715;48.546;9.896;2023-06-22T02:28:35;8.67;;;6.30;;
21114;SDS011;10715;48.546;9.896;2023-06-22T02:31:01;9.17;;;5.70;;
21114;SDS011;10715;48.546;9.896;2023-06-22T02:33:26;8.93;;;5.47;;
21114;SDS011;10715;48.546;9.896;2023-06-22T02:35:52;7.53;;;4.80;;
21114;SDS011;10715;48.546;9.896;2023-06-22T02:38:18;8.63;;;4.40;;
21114;SDS011;10715;48.546;9.896;2023-06-22T02:40:45;6.83;;;5.87;;
21114;SDS011;10715;48.546;9.896;2023-06-22T02:43:11;12.50;;;6.97;;
21114;SDS011;10715;48.546;9.896;2023-06-22T02:45:37;5.57;;;5.07;;
21114;SDS011;10715;48.546;9.896;2023-06-22T02:48:03;7.87;;;4.97;;
21114;SDS011;10715;48.546;9.896;2023-06-22T02:50:29;7.03;;;4.80;;
21114;SDS011;10715;48.546;9.896;2023-06-22T02:52:55;6.17;;;5.47;;
21114;SDS011;10715;48.546;9.896;2023-06-22T02:55:20;6.20;;;4.93;;
21114;SDS011;10715;48.546;9.896;2023-06-22T02:57:46;7.80;;;4.73;;
21114;SDS011;10715;48.546;9.896;2023-06-22T03:00:13;10.10;;;6.53;;
21114;SDS011;10715;48.546;9.896;2023-06-22T03:02:43;7.20;;;5.57;;
21114;SDS011;10715;48.546;9.896;2023-06-22T03:05:10;6.33;;;5.37;;
21114;SDS011;10715;48.546;9.896;2023-06-22T03:07:39;10.17;;;6.50;;
21114;SDS011;10715;48.546;9.896;2023-06-22T03:10:09;10.90;;;4.67;;
21114;SDS011;10715;48.546;9.896;2023-06-22T03:12:35;6.93;;;4.70;;
21114;SDS011;10715;48.546;9.896;2023-06-22T03:15:08;9.50;;;5.10;;
21114;SDS011;10715;48.546;9.896;2023-06-22T03:17:35;7.63;;;5.03;;
21114;SDS011;10715;48.546;9.896;2023-06-22T03:20:02;5.90;;;4.10;;
21114;SDS011;10715;48.546;9.896;2023-06-22T03:22:34;13.40;;;7.63;;
21114;SDS011;10715;48.546;9.896;2023-06-22T03:25:00;5.17;;;4.53;;
21114;SDS011;10715;48.546;9.896;2023-06-22T03:27:26;5.17;;;4.60;;
21114;SDS011;10715;48.546;9.896;2023-06-22T03:29:52;14.13;;;3.87;;
21114;SDS011;10715;48.546;9.896;2023-06-22T03:32:18;4.17;;;3.77;;
21114;SDS011;10715;48.546;9.896;2023-06-22T03:34:43;8.20;;;4.67;;
21114;SDS011;10715;48.546;9.896;2023-06-22T03:37:12;8.67;;;5.83;;
21114;SDS011;10715;48.546;9.896;2023-06-22T03:39:39;6.23;;;5.10;;
21114;SDS011;10715;48.546;9.896;2023-06-22T03:42:05;6.30;;;5.50;;
21114;SDS011;10715;48.546;9.896;2023-06-22T03:44:31;5.40;;;4.77;;
21114;SDS011;10715;48.546;9.896;2023-06-22T03:46:57;5.20;;;3.73;;
21114;SDS011;10715;48.546;9.896;2023-06-22T03:49:23;10.40;;;5.63;;
21114;SDS011;10715;48.546;9.896;2023-06-22T03:51:48;14.70;;;4.87;;
21114;SDS011;10715;48.546;9.896;2023-06-22T03:54:14;5.60;;;4.53;;
21114;SDS011;10715;48.546;9.896;2023-06-22T03:56:40;6.87;;;4.57;;
21114;SDS011;10715;48.546;9.896;2023-06-22T03:59:06;5.70;;;4.17;;
21114;SDS011;10715;48.546;9.896;2023-06-22T04:01:31;7.77;;;4.50;;
21114;SDS011;10715;48.546;9.896;2023-06-22T04:03:57;6.57;;;4.83;;
21114;SDS011;10715;48.546;9.896;2023-06-22T04:06:23;4.07;;;3.80;;
21114;SDS011;10715;48.546;9.896;2023-06-22T04:08:48;9.23;;;4.60;;
21114;SDS011;10715;48.546;9.896;2023-06-22T04:11:16;6.00;;;4.80;;
21114;SDS011;10715;48.546;9.896;2023-06-22T04:13:43;12.40;;;5.33;;
21114;SDS011;10715;48.546;9.896;2023-06-22T04:16:09;9.30;;;7.33;;
21114;SDS011;10715;48.546;9.896;2023-06-22T04:18:34;5.07;;;3.97;;
21114;SDS011;10715;48.546;9.896;2023-06-22T04:21:01;10.63;;;3.87;;
21114;SDS011;10715;48.546;9.896;2023-06-22T04:23:27;10.20;;;4.53;;
21114;SDS011;10715;48.546;9.896;2023-06-22T04:25:52;5.53;;;4.80;;
21114;SDS011;10715;48.546;9.896;2023-06-22T04:28:18;4.90;;;4.40;;
21114;SDS011;10715;48.546;9.896;2023-06-22T04:30:44;4.50;;;4.10;;
21114;SDS011;10715;48.546;9.896;2023-06-22T04:33:16;11.13;;;4.30;;
21114;SDS011;10715;48.546;9.896;2023-06-22T04:35:44;7.13;;;4.70;;
21114;SDS011;10715;48.546;9.896;2023-06-22T04:38:11;10.43;;;5.23;;
21114;SDS011;10715;48.546;9.896;2023-06-22T04:40:38;9.40;;;5.37;;
21114;SDS011;10715;48.546;9.896;2023-06-22T04:43:04;5.50;;;4.70;;
21114;SDS011;10715;48.546;9.896;2023-06-22T04:45:31;7.20;;;5.17;;
21114;SDS011;10715;48.546;9.896;2023-06-22T04:47:58;5.60;;;4.47;;
21114;SDS011;10715;48.546;9.896;2023-06-22T04:50:24;7.03;;;5.17;;
21114;SDS011;10715;48.546;9.896;2023-06-22T04:52:50;5.23;;;4.60;;
21114;SDS011;10715;48.546;9.896;2023-06-22T04:55:16;5.50;;;4.80;;
21114;SDS011;10715;48.546;9.896;2023-06-22T04:57:46;4.87;;;4.10;;
21114;SDS011;10715;48.546;9.896;2023-06-22T05:00:15;4.97;;;3.93;;
21114;SDS011;10715;48.546;9.896;2023-06-22T05:02:43;4.83;;;3.80;;
21114;SDS011;10715;48.546;9.896;2023-06-22T05:05:10;4.50;;;4.10;;
21114;SDS011;10715;48.546;9.896;2023-06-22T05:07:49;6.10;;;3.70;;
21114;SDS011;10715;48.546;9.896;2023-06-22T05:10:18;4.10;;;3.10;;
21114;SDS011;10715;48.546;9.896;2023-06-22T05:12:46;16.30;;;5.10;;
21114;SDS011;10715;48.546;9.896;2023-06-22T05:15:12;3.73;;;3.43;;
21114;SDS011;10715;48.546;9.896;2023-06-22T05:17:38;5.90;;;3.20;;
21114;SDS011;10715;48.546;9.896;2023-06-22T05:20:11;6.37;;;4.20;;
21114;SDS011;10715;48.546;9.896;2023-06-22T05:22:38;6.80;;;4.00;;
21114;SDS011;10715;48.546;9.896;2023-06-22T05:25:05;5.40;;;3.83;;
21114;SDS011;10715;48.546;9.896;2023-06-22T05:27:33;9.53;;;4.67;;
21114;SDS011;10715;48.546;9.896;2023-06-22T05:30:04;8.20;;;4.87;;
21114;SDS011;10715;48.546;9.896;2023-06-22T05:32:33;5.57;;;3.30;;
21114;SDS011;10715;48.546;9.896;2023-06-22T05:35:00;9.20;;;5.27;;
21114;SDS011;10715;48.546;9.896;2023-06-22T05:37:27;8.37;;;5.60;;
21114;SDS011;10715;48.546;9.896;2023-06-22T05:39:53;8.87;;;5.30;;
21114;SDS011;10715;48.546;9.896;2023-06-22T05:42:20;10.30;;;4.63;;
21114;SDS011;10715;48.546;9.896;2023-06-22T05:44:46;5.33;;;4.50;;
21114;SDS011;10715;48.546;9.896;2023-06-22T05:47:12;6.13;;;4.60;;
21114;SDS011;10715;48.546;9.896;2023-06-22T05:49:38;5.80;;;4.13;;
21114;SDS011;10715;48.546;9.896;2023-06-22T05:52:04;11.53;;;6.07;;
21114;SDS011;10715;48.546;9.896;2023-06-22T05:54:30;11.43;;;5.20;;
21114;SDS011;10715;48.546;9.896;2023-06-22T05:56:56;4.40;;;4.00;;
21114;SDS011;10715;48.546;9.896;2023-06-22T05:59:21;5.70;;;3.63;;
21114;SDS011;10715;48.546;9.896;2023-06-22T06:01:47;7.07;;;4.10;;
21114;SDS011;10715;48.546;9.896;2023-06-22T06:04:19;4.83;;;3.67;;
21114;SDS011;10715;48.546;9.896;2023-06-22T06:06:45;4.20;;;3.63;;
21114;SDS011;10715;48.546;9.896;2023-06-22T06:09:12;3.90;;;3.20;;
21114;SDS011;10715;48.546;9.896;2023-06-22T06:11:38;11.43;;;3.67;;
21114;SDS011;10715;48.546;9.896;2023-06-22T06:14:04;5.50;;;5.00;;
21114;SDS011;10715;48.546;9.896;2023-06-22T06:16:30;4.00;;;3.70;;
21114;SDS011;10715;48.546;9.896;2023-06-22T06:18:56;3.27;;;3.00;;
21114;SDS011;10715;48.546;9.896;2023-06-22T06:21:23;4.90;;;4.10;;
21114;SDS011;10715;48.546;9.896;2023-06-22T06:23:49;5.83;;;3.77;;
21114;SDS011;10715;48.546;9.896;2023-06-22T06:26:14;4.43;;;3.50;;
21114;SDS011;10715;48.546;9.896;2023-06-22T06:28:41;4.13;;;3.77;;
21114;SDS011;10715;48.546;9.896;2023-06-22T06:31:08;4.03;;;3.63;;
21114;SDS011;10715;48.546;9.896;2023-06-22T06:33:34;9.17;;;3.67;;
21114;SDS011;10715;48.546;9.896;2023-06-22T06:36:00;3.90;;;3.10;;
21114;SDS011;10715;48.546;9.896;2023-06-22T06:38:28;7.33;;;3.20;;
21114;SDS011;10715;48.546;9.896;2023-06-22T06:40:55;3.07;;;1.90;;
21114;SDS011;10715;48.546;9.896;2023-06-22T06:43:20;4.00;;;2.63;;
21114;SDS011;10715;48.546;9.896;2023-06-22T06:45:46;6.17;;;3.03;;
21114;SDS011;10715;48.546;9.896;2023-06-22T06:48:12;6.60;;;3.27;;
21114;SDS011;10715;48.546;9.896;2023-06-22T06:50:37;6.20;;;2.83;;
21114;SDS011;10715;48.546;9.896;2023-06-22T06:55:33;5.60;;;3.20;;
21114;SDS011;10715;48.546;9.896;2023-06-22T06:57:59;9.50;;;3.67;;
21114;SDS011;10715;48.546;9.896;2023-06-22T07:00:25;7.73;;;1.97;;
21114;SDS011;10715;48.546;9.896;2023-06-22T07:05:18;6.23;;;3.50;;
21114;SDS011;10715;48.546;9.896;2023-06-22T07:07:44;7.97;;;3.50;;
21114;SDS011;10715;48.546;9.896;2023-06-22T07:10:10;5.13;;;2.83;;
21114;SDS011;10715;48.546;9.896;2023-06-22T07:12:36;9.73;;;5.10;;
21114;SDS011;10715;48.546;9.896;2023-06-22T07:17:33;7.97;;;3.13;;
21114;SDS011;10715;48.546;9.896;2023-06-22T07:19:59;5.43;;;3.50;;
21114;SDS011;10715;48.546;9.896;2023-06-22T07:22:26;5.43;;;3.90;;
21114;SDS011;10715;48.546;9.896;2023-06-22T07:24:52;11.33;;;3.93;;
21114;SDS011;10715;48.546;9.896;2023-06-22T07:27:17;10.63;;;3.87;;
21114;SDS011;10715;48.546;9.896;2023-06-22T07:29:44;3.90;;;3.57;;
21114;SDS011;10715;48.546;9.896;2023-06-22T07:32:10;4.70;;;4.00;;
21114;SDS011;10715;48.546;9.896;2023-06-22T07:34:36;5.87;;;3.27;;
21114;SDS011;10715;48.546;9.896;2023-06-22T07:37:02;6.97;;;3.30;;
21114;SDS011;10715;48.546;9.896;2023-06-22T07:39:29;5.00;;;3.63;;
21114;SDS011;10715;48.546;9.896;2023-06-22T07:41:55;9.40;;;3.50;;
21114;SDS011;10715;48.546;9.896;2023-06-22T07:44:21;7.80;;;4.07;;
21114;SDS011;10715;48.546;9.896;2023-06-22T07:46:47;7.80;;;4.47;;
21114;SDS011;10715;48.546;9.896;2023-06-22T07:49:13;10.37;;;5.90;;
21114;SDS011;10715;48.546;9.896;2023-06-22T07:51:38;5.90;;;4.37;;
21114;SDS011;10715;48.546;9.896;2023-06-22T07:54:04;7.87;;;4.60;;
21114;SDS011;10715;48.546;9.896;2023-06-22T07:56:30;10.90;;;3.97;;
21114;SDS011;10715;48.546;9.896;2023-06-22T07:58:56;17.53;;;5.20;;
21114;SDS011;10715;48.546;9.896;2023-06-22T08:01:23;9.93;;;4.70;;
21114;SDS011;10715;48.546;9.896;2023-06-22T08:03:49;6.37;;;4.90;;
21114;SDS011;10715;48.546;9.896;2023-06-22T08:06:15;10.20;;;5.60;;
21114;SDS011;10715;48.546;9.896;2023-06-22T08:08:41;6.20;;;4.43;;
21114;SDS011;10715;48.546;9.896;2023-06-22T08:11:07;9.87;;;5.07;;
21114;SDS011;10715;48.546;9.896;2023-06-22T08:13:34;5.37;;;4.60;;
21114;SDS011;10715;48.546;9.896;2023-06-22T08:16:00;6.53;;;4.60;;
21114;SDS011;10715;48.546;9.896;2023-06-22T08:18:25;6.10;;;3.53;;
21114;SDS011;10715;48.546;9.896;2023-06-22T08:20:51;8.10;;;4.10;;
21114;SDS011;10715;48.546;9.896;2023-06-22T08:23:17;15.17;;;5.47;;
21114;SDS011;10715;48.546;9.896;2023-06-22T08:25:43;9.47;;;4.87;;
21114;SDS011;10715;48.546;9.896;2023-06-22T08:28:09;6.83;;;5.07;;
21114;SDS011;10715;48.546;9.896;2023-06-22T08:30:35;8.20;;;5.37;;
21114;SDS011;10715;48.546;9.896;2023-06-22T08:33:00;6.10;;;4.53;;
21114;SDS011;10715;48.546;9.896;2023-06-22T08:35:26;9.67;;;5.87;;
21114;SDS011;10715;48.546;9.896;2023-06-22T08:37:52;4.83;;;3.77;;
21114;SDS011;10715;48.546;9.896;2023-06-22T08:40:19;7.73;;;5.70;;
21114;SDS011;10715;48.546;9.896;2023-06-22T08:42:46;7.10;;;4.90;;
21114;SDS011;10715;48.546;9.896;2023-06-22T08:45:12;8.40;;;5.70;;
21114;SDS011;10715;48.546;9.896;2023-06-22T08:47:39;9.20;;;4.70;;
21114;SDS011;10715;48.546;9.896;2023-06-22T08:50:06;9.37;;;6.10;;
21114;SDS011;10715;48.546;9.896;2023-06-22T08:52:33;5.30;;;4.80;;
21114;SDS011;10715;48.546;9.896;2023-06-22T08:54:59;9.77;;;6.07;;
21114;SDS011;10715;48.546;9.896;2023-06-22T08:57:25;8.83;;;5.50;;
21114;SDS011;10715;48.546;9.896;2023-06-22T08:59:51;15.90;;;5.53;;
21114;SDS011;10715;48.546;9.896;2023-06-22T09:02:18;11.70;;;6.33;;
21114;SDS011;10715;48.546;9.896;2023-06-22T09:04:45;9.63;;;4.67;;
21114;SDS011;10715;48.546;9.896;2023-06-22T09:07:11;19.23;;;7.10;;
21114;SDS011;10715;48.546;9.896;2023-06-22T09:09:37;9.23;;;6.40;;
21114;SDS011;10715;48.546;9.896;2023-06-22T09:12:03;11.43;;;5.87;;
21114;SDS011;10715;48.546;9.896;2023-06-22T09:14:29;15.60;;;6.50;;
21114;SDS011;10715;48.546;9.896;2023-06-22T09:16:54;10.53;;;7.10;;
21114;SDS011;10715;48.546;9.896;2023-06-22T09:19:20;7.87;;;5.87;;
21114;SDS011;10715;48.546;9.896;2023-06-22T09:21:46;16.97;;;6.20;;
21114;SDS011;10715;48.546;9.896;2023-06-22T09:24:12;14.90;;;6.00;;
21114;SDS011;10715;48.546;9.896;2023-06-22T09:26:38;6.07;;;5.57;;
21114;SDS011;10715;48.546;9.896;2023-06-22T09:29:06;8.40;;;5.13;;
21114;SDS011;10715;48.546;9.896;2023-06-22T09:31:32;9.13;;;6.63;;
21114;SDS011;10715;48.546;9.896;2023-06-22T09:33:58;8.60;;;5.80;;
21114;SDS011;10715;48.546;9.896;2023-06-22T09:36:23;7.53;;;4.90;;
21114;SDS011;10715;48.546;9.896;2023-06-22T09:38:49;5.30;;;4.73;;
21114;SDS011;10715;48.546;9.896;2023-06-22T09:41:24;11.90;;;6.83;;
21114;SDS011;10715;48.546;9.896;2023-06-22T09:43:50;8.00;;;6.27;;
21114;SDS011;10715;48.546;9.896;2023-06-22T09:46:16;9.10;;;5.23;;
21114;SDS011;10715;48.546;9.896;2023-06-22T09:48:42;8.00;;;5.27;;
21114;SDS011;10715;48.546;9.896;2023-06-22T09:51:08;10.00;;;6.37;;
21114;SDS011;10715;48.546;9.896;2023-06-22T09:53:34;6.83;;;5.50;;
21114;SDS011;10715;48.546;9.896;2023-06-22T09:56:00;9.07;;;6.57;;
21114;SDS011;10715;48.546;9.896;2023-06-22T09:58:27;9.70;;;6.57;;
21114;SDS011;10715;48.546;9.896;2023-06-22T10:00:53;7.57;;;6.40;;
21114;SDS011;10715;48.546;9.896;2023-06-22T10:03:19;11.03;;;6.37;;
21114;SDS011;10715;48.546;9.896;2023-06-22T10:05:45;12.83;;;7.23;;
21114;SDS011;10715;48.546;9.896;2023-06-22T10:08:11;6.83;;;6.13;;
21114;SDS011;10715;48.546;9.896;2023-06-22T10:10:37;14.87;;;7.27;;
21114;SDS011;10715;48.546;9.896;2023-06-22T10:13:07;10.67;;;7.33;;
21114;SDS011;10715;48.546;9.896;2023-06-22T10:15:37;14.83;;;6.73;;
21114;SDS011;10715;48.546;9.896;2023-06-22T10:18:03;10.93;;;6.80;;
21114;SDS011;10715;48.546;9.896;2023-06-22T10:20:29;14.67;;;7.17;;
21114;SDS011;10715;48.546;9.896;2023-06-22T10:22:55;10.73;;;6.50;;
21114;SDS011;10715;48.546;9.896;2023-06-22T10:25:21;9.43;;;5.57;;
21114;SDS011;10715;48.546;9.896;2023-06-22T10:27:47;11.07;;;6.97;;
21114;SDS011;10715;48.546;9.896;2023-06-22T10:30:13;9.17;;;6.27;;
21114;SDS011;10715;48.546;9.896;2023-06-22T10:32:40;11.73;;;5.90;;
21114;SDS011;10715;48.546;9.896;2023-06-22T10:35:07;10.00;;;6.60;;
21114;SDS011;10715;48.546;9.896;2023-06-22T10:37:33;8.27;;;5.50;;
21114;SDS011;10715;48.546;9.896;2023-06-22T10:39:59;11.43;;;6.20;;
21114;SDS011;10715;48.546;9.896;2023-06-22T10:42:25;7.93;;;5.47;;
21114;SDS011;10715;48.546;9.896;2023-06-22T10:44:50;7.93;;;6.10;;
21114;SDS011;10715;48.546;9.896;2023-06-22T10:47:16;12.77;;;5.57;;
21114;SDS011;10715;48.546;9.896;2023-06-22T10:49:42;19.37;;;6.33;;
21114;SDS011;10715;48.546;9.896;2023-06-22T10:52:08;12.10;;;7.00;;
21114;SDS011;10715;48.546;9.896;2023-06-22T10:54:37;9.53;;;6.23;;
21114;SDS011;10715;48.546;9.896;2023-06-22T10:57:03;19.37;;;6.50;;
21114;SDS011;10715;48.546;9.896;2023-06-22T10:59:29;11.30;;;6.43;;
21114;SDS011;10715;48.546;9.896;2023-06-22T11:01:55;7.97;;;5.77;;
21114;SDS011;10715;48.546;9.896;2023-06-22T11:04:21;7.80;;;5.50;;
21114;SDS011;10715;48.546;9.896;2023-06-22T11:06:48;8.40;;;6.40;;
21114;SDS011;10715;48.546;9.896;2023-06-22T11:09:14;8.23;;;6.00;;
21114;SDS011;10715;48.546;9.896;2023-06-22T11:11:46;8.40;;;5.70;;
21114;SDS011;10715;48.546;9.896;2023-06-22T11:14:13;8.97;;;5.60;;
21114;SDS011;10715;48.546;9.896;2023-06-22T11:16:39;8.13;;;6.70;;
21114;SDS011;10715;48.546;9.896;2023-06-22T11:19:04;11.13;;;5.30;;
21114;SDS011;10715;48.546;9.896;2023-06-22T11:21:31;8.27;;;5.80;;
21114;SDS011;10715;48.546;9.896;2023-06-22T11:23:57;11.00;;;6.03;;
21114;SDS011;10715;48.546;9.896;2023-06-22T11:26:24;17.53;;;6.47;;
21114;SDS011;10715;48.546;9.896;2023-06-22T11:28:52;11.83;;;5.50;;
21114;SDS011;10715;48.546;9.896;2023-06-22T11:31:18;12.27;;;5.20;;
21114;SDS011;10715;48.546;9.896;2023-06-22T11:33:43;7.33;;;5.40;;
21114;SDS011;10715;48.546;9.896;2023-06-22T11:36:12;10.33;;;5.50;;
21114;SDS011;10715;48.546;9.896;2023-06-22T11:38:39;16.63;;;5.07;;
21114;SDS011;10715;48.546;9.896;2023-06-22T11:41:05;9.50;;;5.77;;
21114;SDS011;10715;48.546;9.896;2023-06-22T11:43:31;8.37;;;6.00;;
21114;SDS011;10715;48.546;9.896;2023-06-22T11:45:57;7.50;;;5.50;;
21114;SDS011;10715;48.546;9.896;2023-06-22T11:48:24;8.30;;;6.30;;
21114;SDS011;10715;48.546;9.896;2023-06-22T11:50:50;15.70;;;6.27;;
21114;SDS011;10715;48.546;9.896;2023-06-22T11:53:16;10.13;;;5.93;;
21114;SDS011;10715;48.546;9.896;2023-06-22T11:55:42;8.93;;;5.60;;
21114;SDS011;10715;48.546;9.896;2023-06-22T11:58:09;20.17;;;7.10;;
21114;SDS011;10715;48.546;9.896;2023-06-22T12:00:35;10.30;;;6.13;;
21114;SDS011;10715;48.546;9.896;2023-06-22T12:03:00;9.40;;;6.23;;
21114;SDS011;10715;48.546;9.896;2023-06-22T12:05:26;6.70;;;5.90;;
21114;SDS011;10715;48.546;9.896;2023-06-22T12:07:53;7.20;;;5.93;;
21114;SDS011;10715;48.546;9.896;2023-06-22T12:10:20;10.13;;;7.40;;
21114;SDS011;10715;48.546;9.896;2023-06-22T12:12:46;13.77;;;5.77;;
21114;SDS011;10715;48.546;9.896;2023-06-22T12:15:12;5.50;;;4.87;;
21114;SDS011;10715;48.546;9.896;2023-06-22T12:17:38;13.53;;;5.97;;
21114;SDS011;10715;48.546;9.896;2023-06-22T12:20:05;8.93;;;6.43;;
21114;SDS011;10715;48.546;9.896;2023-06-22T12:22:32;8.67;;;5.27;;
21114;SDS011;10715;48.546;9.896;2023-06-22T12:24:58;6.63;;;5.90;;
21114;SDS011;10715;48.546;9.896;2023-06-22T12:27:24;7.70;;;5.90;;
21114;SDS011;10715;48.546;9.896;2023-06-22T12:29:50;7.10;;;5.80;;
21114;SDS011;10715;48.546;9.896;2023-06-22T12:32:16;8.10;;;5.80;;
21114;SDS011;10715;48.546;9.896;2023-06-22T12:34:43;8.07;;;5.70;;
21114;SDS011;10715;48.546;9.896;2023-06-22T12:37:09;11.13;;;5.90;;
21114;SDS011;10715;48.546;9.896;2023-06-22T12:39:35;7.57;;;5.63;;
21114;SDS011;10715;48.546;9.896;2023-06-22T12:42:01;7.37;;;5.93;;
21114;SDS011;10715;48.546;9.896;2023-06-22T12:44:27;6.10;;;5.47;;
21114;SDS011;10715;48.546;9.896;2023-06-22T12:46:53;11.30;;;6.00;;
21114;SDS011;10715;48.546;9.896;2023-06-22T12:49:19;15.23;;;8.23;;
21114;SDS011;10715;48.546;9.896;2023-06-22T12:51:44;10.20;;;7.07;;
21114;SDS011;10715;48.546;9.896;2023-06-22T12:54:11;10.10;;;6.13;;
21114;SDS011;10715;48.546;9.896;2023-06-22T12:56:37;6.50;;;5.97;;
21114;SDS011;10715;48.546;9.896;2023-06-22T12:59:04;12.63;;;6.70;;
21114;SDS011;10715;48.546;9.896;2023-06-22T13:01:30;11.77;;;6.90;;
21114;SDS011;10715;48.546;9.896;2023-06-22T13:03:57;8.97;;;6.67;;
21114;SDS011;10715;48.546;9.896;2023-06-22T13:06:25;11.10;;;6.73;;
21114;SDS011;10715;48.546;9.896;2023-06-22T13:08:51;8.77;;;7.00;;
21114;SDS011;10715;48.546;9.896;2023-06-22T13:11:17;15.17;;;6.57;;
21114;SDS011;10715;48.546;9.896;2023-06-22T13:13:44;7.77;;;6.10;;
21114;SDS011;10715;48.546;9.896;2023-06-22T13:16:10;8.37;;;5.37;;
21114;SDS011;10715;48.546;9.896;2023-06-22T13:18:36;13.00;;;6.60;;
21114;SDS011;10715;48.546;9.896;2023-06-22T13:21:02;8.57;;;6.50;;
21114;SDS011;10715;48.546;9.896;2023-06-22T13:23:28;5.60;;;5.00;;
21114;SDS011;10715;48.546;9.896;2023-06-22T13:25:54;16.50;;;6.93;;
21114;SDS011;10715;48.546;9.896;2023-06-22T13:28:20;16.70;;;7.13;;
21114;SDS011;10715;48.546;9.896;2023-06-22T13:30:46;9.83;;;7.27;;
21114;SDS011;10715;48.546;9.896;2023-06-22T13:33:15;9.47;;;6.57;;
21114;SDS011;10715;48.546;9.896;2023-06-22T13:35:41;8.83;;;7.13;;
21114;SDS011;10715;48.546;9.896;2023-06-22T13:38:07;7.07;;;6.33;;
21114;SDS011;10715;48.546;9.896;2023-06-22T13:40:34;11.97;;;6.53;;
21114;SDS011;10715;48.546;9.896;2023-06-22T13:43:00;6.97;;;6.07;;
21114;SDS011;10715;48.546;9.896;2023-06-22T13:45:26;13.60;;;7.47;;
21114;SDS011;10715;48.546;9.896;2023-06-22T13:47:52;6.23;;;5.63;;
21114;SDS011;10715;48.546;9.896;2023-06-22T13:50:17;15.03;;;7.07;;
21114;SDS011;10715;48.546;9.896;2023-06-22T13:52:43;9.10;;;6.00;;
21114;SDS011;10715;48.546;9.896;2023-06-22T13:55:09;10.90;;;6.47;;
21114;SDS011;10715;48.546;9.896;2023-06-22T13:57:35;7.27;;;5.93;;
21114;SDS011;10715;48.546;9.896;2023-06-22T14:00:02;15.30;;;7.50;;
21114;SDS011;10715;48.546;9.896;2023-06-22T14:02:30;9.07;;;6.67;;
21114;SDS011;10715;48.546;9.896;2023-06-22T14:04:56;7.93;;;6.70;;
21114;SDS011;10715;48.546;9.896;2023-06-22T14:07:21;11.50;;;7.60;;
21114;SDS011;10715;48.546;9.896;2023-06-22T14:09:49;9.47;;;6.47;;
21114;SDS011;10715;48.546;9.896;2023-06-22T14:12:15;10.90;;;7.90;;
21114;SDS011;10715;48.546;9.896;2023-06-22T14:14:42;9.30;;;6.93;;
21114;SDS011;10715;48.546;9.896;2023-06-22T14:17:09;10.60;;;7.30;;
21114;SDS011;10715;48.546;9.896;2023-06-22T14:19:35;13.30;;;7.50;;
21114;SDS011;10715;48.546;9.896;2023-06-22T14:22:01;11.97;;;6.80;;
21114;SDS011;10715;48.546;9.896;2023-06-22T14:24:27;9.00;;;7.60;;
21114;SDS011;10715;48.546;9.896;2023-06-22T14:26:54;12.53;;;6.07;;
21114;SDS011;10715;48.546;9.896;2023-06-22T14:29:20;14.80;;;8.40;;
21114;SDS011;10715;48.546;9.896;2023-06-22T14:31:46;20.00;;;7.20;;
21114;SDS011;10715;48.546;9.896;2023-06-22T14:34:13;9.30;;;7.20;;
21114;SDS011;10715;48.546;9.896;2023-06-22T14:36:38;12.30;;;7.30;;
21114;SDS011;10715;48.546;9.896;2023-06-22T14:39:04;10.53;;;7.47;;
21114;SDS011;10715;48.546;9.896;2023-06-22T14:41:30;11.93;;;8.10;;
21114;SDS011;10715;48.546;9.896;2023-06-22T14:43:56;14.73;;;7.37;;
21114;SDS011;10715;48.546;9.896;2023-06-22T14:46:22;14.03;;;7.90;;
21114;SDS011;10715;48.546;9.896;2023-06-22T14:48:48;11.07;;;6.80;;
21114;SDS011;10715;48.546;9.896;2023-06-22T14:51:14;14.60;;;6.63;;
21114;SDS011;10715;48.546;9.896;2023-06-22T14:53:39;8.87;;;6.20;;
21114;SDS011;10715;48.546;9.896;2023-06-22T14:56:05;17.90;;;7.87;;